Time;durP1;ratioP1;P1;durP2;ratioP2;P2;SDS_P1;SDS_P2;PMS_P1;PMS_P2;Temp;Humidity;BMP_temperature;BMP_pressure;BME280_temperature;BME280_humidity;BME280_pressure;Samples;Min_cycle;Max_cycle;Signal;HPM_P1;HPM_P2
2023/03/23 00:01:56;;;;;;;2.33;1.77;;;;;;;;;;5048371;28;20033;-76
2023/03/23 00:04:22;;;;;;;3.10;2.60;;;;;;;;;;5047817;28;20131;-76
2023/03/23 00:06:49;;;;;;;4.72;2.08;;;;;;;;;;5060514;28;20119;-76
2023/03/23 00:09:15;;;;;;;3.97;2.47;;;;;;;;;;5051659;28;20029;-76
2023/03/23 00:11:42;;;;;;;2.10;1.90;;;18.50;57.90;;;;;;5052325;28;20274;-76
2023/03/23 00:14:12;;;;;;;5.43;2.15;;;15.60;56.20;;;;;;5052307;28;20029;-76
2023/03/23 00:16:40;;;;;;;1.92;1.67;;;;;;;;;;5051861;28;20585;-76
2023/03/23 00:19:09;;;;;;;2.40;2.03;;;15.60;75.90;;;;;;5052074;28;20029;-76
2023/03/23 00:21:37;;;;;;;2.00;1.85;;;15.60;55.90;;;;;;5052011;28;20466;-76
2023/03/23 00:24:17;;;;;;;3.47;1.75;;;15.70;55.60;;;;;;5051864;28;20044;-76
2023/03/23 00:26:45;;;;;;;2.78;1.80;;;15.80;55.10;;;;;;5039839;28;20538;-76
2023/03/23 00:29:13;;;;;;;2.63;1.98;;;15.80;54.50;;;;;;5051409;28;20036;-77
2023/03/23 00:31:39;;;;;;;1.55;1.45;;;;;;;;;;5052022;28;20044;-76
2023/03/23 00:34:06;;;;;;;2.53;2.00;;;;;;;;;;5051619;28;20025;-77
2023/03/23 00:36:34;;;;;;;2.80;1.80;;;15.80;55.10;;;;;;5052002;28;20119;-76
2023/03/23 00:39:02;;;;;;;2.70;1.95;;;15.80;54.90;;;;;;5051328;28;20041;-77
2023/03/23 00:41:28;;;;;;;2.20;2.00;;;;;;;;;;5051706;28;20033;-76
2023/03/23 00:44:00;;;;;;;4.30;2.28;;;15.60;55.90;;;;;;5050645;28;20047;-76
2023/03/23 00:46:26;;;;;;;2.60;1.92;;;;;;;;;;5051417;28;20426;-75
2023/03/23 00:48:52;;;;;;;3.47;1.90;;;;;;;;;;5051366;28;20309;-77
2023/03/23 00:51:18;;;;;;;2.40;1.75;;;15.70;54.50;;;;;;5051526;28;20145;-76
2023/03/23 00:53:45;;;;;;;2.40;1.17;;;;;;;;;;5049879;28;20064;-76
2023/03/23 00:56:11;;;;;;;1.15;0.95;;;;;;;;;;5051028;28;20041;-76
2023/03/23 00:58:37;;;;;;;1.25;0.90;;;;;;;;;;5051213;28;20071;-77
2023/03/23 01:01:04;;;;;;;1.38;1.17;;;;;;;;;;5051281;28;20029;-77
2023/03/23 01:03:30;;;;;;;2.88;1.73;;;;;;;;;;5050708;28;20096;-76
2023/03/23 01:05:56;;;;;;;1.10;0.90;;;;;;;;;;5061380;28;20024;-77
2023/03/23 01:08:23;;;;;;;3.35;1.65;;;16.20;49.20;;;;;;5054090;28;20377;-76
2023/03/23 01:10:49;;;;;;;1.55;0.90;;;16.30;49.10;;;;;;5044737;28;20028;-76
2023/03/23 01:13:15;;;;;;;1.50;0.90;;;16.30;48.90;;;;;;5038821;28;20534;-76
2023/03/23 01:15:42;;;;;;;1.30;1.17;;;16.30;48.60;;;;;;5051296;28;20043;-76
2023/03/23 01:18:09;;;;;;;1.20;1.00;;;16.30;48.80;;;;;;5050801;28;20065;-76
2023/03/23 01:20:36;;;;;;;2.83;1.00;;;16.30;49.10;;;;;;5050173;28;20391;-77
2023/03/23 01:23:02;;;;;;;1.25;0.98;;;16.10;66.30;;;;;;5050440;28;20032;-76
2023/03/23 01:25:30;;;;;;;1.58;1.35;;;16.20;49.90;;;;;;5051135;28;20020;-76
2023/03/23 01:27:57;;;;;;;1.17;1.08;;;16.10;50.20;;;;;;5065793;28;20055;-75
2023/03/23 01:30:23;;;;;;;1.33;1.08;;;15.90;70.00;;;;;;5051205;28;20036;-77
2023/03/23 01:32:49;;;;;;;3.33;1.13;;;;;;;;;;5050388;28;20455;-76
2023/03/23 01:35:15;;;;;;;2.55;1.60;;;;;;;;;;5050940;28;20446;-76
2023/03/23 01:37:41;;;;;;;3.15;1.10;;;;;;;;;;5050316;28;20080;-76
2023/03/23 01:40:08;;;;;;;2.72;1.42;;;;;;;;;;5050758;28;20555;-76
2023/03/23 01:42:36;;;;;;;1.48;1.35;;;15.70;52.20;;;;;;5037317;28;20503;-76
2023/03/23 01:45:20;;;;;;;2.05;1.05;;;15.50;71.70;;;;;;5050747;28;20047;-76
2023/03/23 01:47:56;;;;;;;2.45;1.65;;;15.60;52.40;;;;;;5039638;28;20523;-76
2023/03/23 01:50:23;;;;;;;4.53;1.58;;;15.60;52.50;;;;;;5049978;28;20013;-76
2023/03/23 01:52:52;;;;;;;1.67;1.45;;;15.50;52.80;;;;;;5050508;28;20041;-77
2023/03/23 01:55:19;;;;;;;1.23;1.13;;;15.50;72.50;;;;;;5050278;28;20021;-76
2023/03/23 01:57:46;;;;;;;2.42;1.23;;;;;;;;;;5050140;28;20028;-76
2023/03/23 02:00:15;;;;;;;1.83;1.23;;;15.70;72.50;;;;;;5048389;28;20024;-76
2023/03/23 02:02:44;;;;;;;2.30;1.55;;;15.50;52.70;;;;;;5050338;28;20163;-77
2023/03/23 02:05:33;;;;;;;1.20;1.10;;;15.50;52.80;;;;;;5053329;28;20146;-76
2023/03/23 02:08:02;;;;;;;1.60;1.33;;;15.50;53.20;;;;;;5055934;28;20017;-76
2023/03/23 02:10:31;;;;;;;1.13;1.02;;;15.30;73.10;;;;;;5052015;28;20017;-76
2023/03/23 02:13:00;;;;;;;2.85;1.77;;;15.50;53.90;;;;;;5049468;28;20115;-76
2023/03/23 02:15:32;;;;;;;2.13;1.10;;;15.40;53.40;;;;;;5049985;28;20017;-76
2023/03/23 02:18:07;;;;;;;2.28;1.25;;;15.40;73.60;;;;;;5049607;28;20772;-77
2023/03/23 02:20:47;;;;;;;1.98;1.17;;;15.50;57.50;;;;;;5049406;28;20021;-76
2023/03/23 02:23:36;;;;;;;1.60;1.30;;;15.40;54.00;;;;;;5049497;28;20017;-76
2023/03/23 02:26:21;;;;;;;1.65;1.23;;;15.50;71.80;;;;;;5046261;28;20040;-76
2023/03/23 02:29:11;;;;;;;2.08;1.40;;;15.30;70.00;;;;;;5049540;28;20561;-76
2023/03/23 02:31:42;;;;;;;3.08;1.27;;;15.30;55.30;;;;;;5038188;28;20024;-77
2023/03/23 02:34:17;;;;;;;1.35;1.20;;;15.20;54.80;;;;;;5049064;28;20021;-76
2023/03/23 02:36:52;;;;;;;3.70;1.33;;;15.20;55.40;;;;;;5048985;28;20033;-76
2023/03/23 02:39:29;;;;;;;2.20;1.63;;;15.10;54.90;;;;;;5048847;28;20021;-76
2023/03/23 02:42:00;;;;;;;3.28;1.15;;;15.20;54.90;;;;;;5049691;28;20086;-77
2023/03/23 02:44:29;;;;;;;2.17;1.27;;;15.00;71.80;;;;;;5036777;28;20388;-76
2023/03/23 02:46:58;;;;;;;1.55;1.27;;;15.20;55.30;;;;;;5048863;28;20761;-76
2023/03/23 02:49:26;;;;;;;1.80;1.13;;;15.20;54.60;;;;;;5049474;28;20536;-76
2023/03/23 02:51:53;;;;;;;2.42;1.33;;;15.20;74.10;;;;;;5048828;28;20558;-76
2023/03/23 02:54:22;;;;;;;1.25;1.10;;;15.20;54.30;;;;;;5049148;28;20032;-76
2023/03/23 02:56:50;;;;;;;2.47;1.15;;;15.20;54.30;;;;;;5048159;28;20507;-76
2023/03/23 02:59:16;;;;;;;1.30;1.05;;;;;;;;;;5049244;28;20075;-76
2023/03/23 03:01:42;;;;;;;1.48;1.10;;;;;;;;;;5048893;28;20796;-76
2023/03/23 03:04:14;;;;;;;1.67;0.82;;;15.40;74.20;;;;;;5043872;28;20087;-76
2023/03/23 03:07:02;;;;;;;3.65;2.00;;;15.40;70.20;;;;;;5058577;28;20033;-77
2023/03/23 03:09:43;;;;;;;1.25;0.90;;;15.20;55.10;;;;;;5048574;28;20048;-76
2023/03/23 03:12:22;;;;;;;2.30;1.27;;;15.30;54.10;;;;;;5036667;28;20028;-76
2023/03/23 03:15:02;;;;;;;1.23;1.13;;;15.20;54.30;;;;;;5043723;28;20672;-77
2023/03/23 03:17:31;;;;;;;3.00;1.30;;;15.10;54.30;;;;;;5042332;28;20040;-76
2023/03/23 03:20:06;;;;;;;1.63;1.10;;;15.00;54.50;;;;;;5048755;28;20032;-76
2023/03/23 03:22:33;;;;;;;1.40;1.10;;;15.00;74.20;;;;;;5048631;28;20021;-76
2023/03/23 03:25:00;;;;;;;1.65;1.35;;;15.40;62.50;;;;;;5048601;28;20079;-76
2023/03/23 03:27:27;;;;;;;2.03;1.40;;;;;;;;;;5048809;28;20060;-77
2023/03/23 03:29:58;;;;;;;1.23;1.08;;;14.90;54.60;;;;;;5048627;28;20056;-76
2023/03/23 03:32:33;;;;;;;1.73;0.93;;;15.30;74.50;;;;;;5048186;28;20039;-76
2023/03/23 03:35:03;;;;;;;3.15;1.13;;;15.00;54.40;;;;;;5047713;28;20048;-77
2023/03/23 03:37:36;;;;;;;1.67;1.15;;;15.00;54.20;;;;;;5037199;28;20043;-77
2023/03/23 03:40:11;;;;;;;1.55;1.13;;;15.10;74.10;;;;;;5046151;28;20102;-76
2023/03/23 03:42:39;;;;;;;2.08;1.23;;;15.10;54.20;;;;;;5047990;28;20102;-76
2023/03/23 03:45:05;;;;;;;;;;;15.10;54.10;;;;;;5047604;28;20112;-76
2023/03/23 03:47:31;;;;;;;1.03;1.00;;;;;;;;;;5048273;28;20397;-76
2023/03/23 03:49:57;;;;;;;1.02;0.93;;;;;;;;;;5048541;28;20021;-76
2023/03/23 03:52:23;;;;;;;3.20;1.35;;;;;;;;;;5047640;28;20041;-77
2023/03/23 03:54:50;;;;;;;1.45;1.10;;;;;;;;;;5046899;28;20057;-76
2023/03/23 03:57:17;;;;;;;1.95;1.20;;;;;;;;;;5048326;28;20037;-76
2023/03/23 03:59:43;;;;;;;3.50;1.60;;;;;;;;;;5047885;28;20025;-76
2023/03/23 04:02:13;;;;;;;1.58;1.00;;;;;;;;;;5048155;28;20040;-76
2023/03/23 04:04:40;;;;;;;3.60;1.35;;;;;;;;;;5047706;28;20053;-76
2023/03/23 04:07:06;;;;;;;2.37;1.53;;;;;;;;;;5047943;28;20033;-76
2023/03/23 04:09:32;;;;;;;1.23;1.00;;;;;;;;;;5048021;28;20310;-76
2023/03/23 04:11:58;;;;;;;3.05;1.05;;;;;;;;;;5045327;28;20457;-76
2023/03/23 04:14:24;;;;;;;1.48;1.33;;;;;;;;;;5048594;28;20104;-77
2023/03/23 04:16:56;;;;;;;2.55;1.20;;;;;;;;;;5048044;28;20372;-76
2023/03/23 04:19:22;;;;;;;1.83;1.20;;;;;;;;;;5050489;28;20024;-76
2023/03/23 04:21:48;;;;;;;2.65;1.20;;;14.70;74.90;;;;;;5048149;28;20035;-76
2023/03/23 04:24:15;;;;;;;1.67;1.20;;;14.70;54.70;;;;;;5048321;28;20044;-76
2023/03/23 04:26:41;;;;;;;2.83;1.40;;;14.90;74.40;;;;;;5047889;28;20128;-76
2023/03/23 04:29:08;;;;;;;1.65;1.40;;;14.90;53.90;;;;;;5048085;28;20068;-77
2023/03/23 04:31:34;;;;;;;2.00;1.20;;;;;;;;;;5047199;28;20082;-77
2023/03/23 04:34:01;;;;;;;2.40;1.00;;;;;;;;;;5047709;28;20032;-77
2023/03/23 04:36:28;;;;;;;2.83;1.27;;;;;;;;;;5048044;28;20061;-76
2023/03/23 04:38:54;;;;;;;7.47;2.58;;;14.60;75.10;;;;;;5047824;28;20349;-76
2023/03/23 04:41:21;;;;;;;2.10;1.30;;;14.50;55.50;;;;;;5048134;28;20038;-76
2023/03/23 04:43:52;;;;;;;1.48;1.27;;;;;;;;;;5047954;28;20384;-76
2023/03/23 04:46:19;;;;;;;1.75;1.52;;;;;;;;;;5046672;28;20112;-76
2023/03/23 04:48:45;;;;;;;5.25;1.40;;;;;;;;;;5047758;28;20450;-76
2023/03/23 04:51:14;;;;;;;12.60;2.20;;;14.20;57.40;;;;;;5034650;28;20045;-76
2023/03/23 04:53:40;;;;;;;2.20;1.30;;;;;;;;;;5048292;28;20124;-76
2023/03/23 04:56:07;;;;;;;2.33;1.10;;;14.20;57.60;;;;;;5051289;28;20175;-76
2023/03/23 04:58:33;;;;;;;1.45;1.23;;;;;;;;;;5050956;28;20022;-77
2023/03/23 05:00:59;;;;;;;1.77;1.40;;;;;;;;;;5050124;28;20426;-77
2023/03/23 05:03:26;;;;;;;2.33;1.67;;;;;;;;;;5051211;28;20044;-76
2023/03/23 05:05:53;;;;;;;1.20;1.10;;;14.30;57.50;;;;;;5051431;28;20120;-76
2023/03/23 05:08:28;;;;;;;1.40;1.30;;;14.30;57.80;;;;;;5050839;28;20064;-76
2023/03/23 05:10:56;;;;;;;1.55;1.08;;;14.20;77.80;;;;;;5051568;28;20021;-77
2023/03/23 05:13:22;;;;;;;2.60;1.30;;;;;;;;;;5051344;28;20033;-77
2023/03/23 05:15:48;;;;;;;2.00;1.25;;;;;;;;;;5051471;28;20380;-77
2023/03/23 05:18:15;;;;;;;2.38;1.33;;;;;;;;;;5050748;28;20032;-76
2023/03/23 05:20:46;;;;;;;6.03;2.20;;;;;;;;;;5051009;28;20021;-76
2023/03/23 05:23:12;;;;;;;1.50;1.40;;;;;;;;;;5050982;28;20036;-76
2023/03/23 05:25:41;;;;;;;1.60;1.13;;;;;;;;;;5050916;28;20386;-76
2023/03/23 05:28:08;;;;;;;1.20;1.10;;;14.00;79.40;;;;;;5050370;28;20044;-76
2023/03/23 05:30:35;;;;;;;1.85;1.33;;;14.00;59.80;;;;;;5050926;28;20399;-77
2023/03/23 05:33:01;;;;;;;1.67;1.20;;;13.90;60.20;;;;;;5050107;28;20048;-76
2023/03/23 05:35:27;;;;;;;1.42;1.27;;;;;;;;;;5050539;28;20021;-76
2023/03/23 05:37:53;;;;;;;3.58;1.88;;;14.00;67.90;;;;;;5050365;28;20501;-76
2023/03/23 05:40:20;;;;;;;1.75;1.60;;;13.80;61.00;;;;;;5050694;28;20389;-76
2023/03/23 05:42:46;;;;;;;1.77;1.10;;;;;;;;;;5050229;28;20029;-76
2023/03/23 05:45:12;;;;;;;2.45;1.60;;;;;;;;;;5048350;28;20033;-76
2023/03/23 05:47:40;;;;;;;3.00;1.27;;;13.80;61.30;;;;;;5050114;28;20399;-76
2023/03/23 05:50:07;;;;;;;;;;;13.90;61.90;;;;;;5050864;28;20507;-76
2023/03/23 05:52:35;;;;;;;1.15;1.05;;;13.80;61.70;;;;;;5048651;28;19975;-76
2023/03/23 05:55:03;;;;;;;1.55;1.20;;;;;;;;;;5050464;28;20037;-76
2023/03/23 05:57:29;;;;;;;3.20;1.40;;;;;;;;;;5050401;28;20037;-76
2023/03/23 05:59:55;;;;;;;2.25;1.20;;;;;;;;;;5050244;28;20164;-76
2023/03/23 06:02:23;;;;;;;1.58;1.42;;;13.90;81.50;;;;;;5043435;28;20056;-76
2023/03/23 06:04:48;;;;;;;;;;;13.80;65.30;;;;;;5045245;28;20036;-77
2023/03/23 06:07:15;;;;;;;2.38;1.50;;;;;;;;;;5049478;28;19909;-76
2023/03/23 06:09:41;;;;;;;1.52;1.13;;;13.70;62.70;;;;;;5049730;28;20078;-76
2023/03/23 06:12:09;;;;;;;3.13;1.42;;;13.70;74.20;;;;;;5049753;28;20028;-76
2023/03/23 06:14:35;;;;;;;2.10;1.42;;;;;;;;;;5043133;28;20507;-76
2023/03/23 06:17:01;;;;;;;1.98;1.70;;;;;;;;;;5045446;28;20095;-75
2023/03/23 06:19:27;;;;;;;2.67;1.55;;;;;;;;;;5045927;28;20025;-77
2023/03/23 06:21:55;;;;;;;2.15;1.33;;;13.40;66.40;;;;;;5045513;28;20033;-76
2023/03/23 06:24:21;;;;;;;6.82;4.80;;;;;;;;;;5037183;28;20097;-77
2023/03/23 06:26:48;;;;;;;1.30;1.20;;;;;;;;;;5036936;28;20080;-76
2023/03/23 06:29:15;;;;;;;1.30;1.13;;;;;;;;;;5045102;28;20523;-77
2023/03/23 06:31:45;;;;;;;1.85;1.38;;;13.90;64.10;;;;;;5047074;28;20028;-76
2023/03/23 06:34:11;;;;;;;2.53;1.58;;;;;;;;;;5046205;28;20024;-76
2023/03/23 06:36:38;;;;;;;3.15;1.67;;;;;;;;;;5047377;28;20046;-76
2023/03/23 06:39:04;;;;;;;4.00;1.50;;;;;;;;;;5042017;28;20102;-77
2023/03/23 06:41:31;;;;;;;3.47;1.98;;;13.70;67.90;;;;;;5037278;28;20026;-79
2023/03/23 06:43:57;;;;;;;2.13;1.40;;;;;;;;;;5039842;28;20509;-77
2023/03/23 06:46:23;;;;;;;4.75;1.48;;;;;;;;;;5040175;28;20033;-77
2023/03/23 06:48:50;;;;;;;1.90;1.60;;;;;;;;;;5040383;28;20021;-78
2023/03/23 06:51:16;;;;;;;2.22;2.03;;;14.10;67.90;;;;;;5047239;28;20100;-78
2023/03/23 06:53:42;;;;;;;5.17;1.90;;;;;;;;;;5045127;28;20091;-78
2023/03/23 06:56:08;;;;;;;1.83;1.48;;;;;;;;;;5048156;28;20043;-78
2023/03/23 06:58:35;;;;;;;2.55;1.73;;;;;;;;;;5046612;28;20598;-78
2023/03/23 07:01:01;;;;;;;3.35;1.58;;;;;;;;;;5047149;28;20029;-78
2023/03/23 07:03:27;;;;;;;3.17;1.77;;;;;;;;;;5047581;28;20120;-78
2023/03/23 07:05:54;;;;;;;3.40;2.45;;;;;;;;;;5047336;28;20021;-77
2023/03/23 07:08:20;;;;;;;2.65;1.92;;;;;;;;;;5047268;28;20025;-78
2023/03/23 07:10:46;;;;;;;1.60;1.45;;;;;;;;;;5047498;28;20025;-78
2023/03/23 07:13:12;;;;;;;2.97;1.27;;;15.70;81.70;;;;;;5047054;28;20045;-77
2023/03/23 07:15:39;;;;;;;3.47;1.70;;;15.90;62.60;;;;;;5047376;28;20055;-77
2023/03/23 07:18:05;;;;;;;4.63;2.80;;;;;;;;;;5046217;28;20074;-77
2023/03/23 07:20:32;;;;;;;2.85;1.73;;;16.40;62.10;;;;;;5043539;28;20035;-78
2023/03/23 07:22:58;;;;;;;3.10;1.83;;;;;;;;;;5045400;28;20028;-78
2023/03/23 07:25:24;;;;;;;3.88;2.10;;;;;;;;;;5044354;28;20028;-77
2023/03/23 07:27:50;;;;;;;7.07;1.77;;;;;;;;;;5045998;28;20098;-78
2023/03/23 07:30:16;;;;;;;4.68;2.13;;;;;;;;;;5046630;28;20545;-83
2023/03/23 07:32:42;;;;;;;6.05;1.65;;;;;;;;;;5038252;28;20380;-83
2023/03/23 07:35:09;;;;;;;3.58;1.73;;;14.70;77.30;;;;;;5046413;28;20025;-81
2023/03/23 07:37:35;;;;;;;2.88;2.67;;;14.90;65.30;;;;;;5047146;28;20052;-79
2023/03/23 07:40:14;;;;;;;2.37;1.90;;;15.10;80.90;;;;;;5043215;28;20551;-78
2023/03/23 07:42:43;;;;;;;3.58;2.40;;;15.80;65.10;;;;;;5041875;28;20025;-78
2023/03/23 07:45:13;;;;;;;4.15;2.03;;;15.40;66.30;;;;;;5044930;28;20464;-78
2023/03/23 07:47:42;;;;;;;5.25;2.17;;;15.80;56.30;;;;;;5045658;28;20035;-78
2023/03/23 07:50:09;;;;;;;7.97;2.42;;;16.00;55.90;;;;;;5047005;28;20021;-79
2023/03/23 07:52:35;;;;;;;2.75;1.55;;;16.10;55.90;;;;;;5047143;28;20041;-80
2023/03/23 07:55:03;;;;;;;2.78;2.38;;;16.40;73.20;;;;;;5039345;28;20045;-81
2023/03/23 07:57:30;;;;;;;2.38;1.63;;;16.30;53.10;;;;;;5045810;28;20553;-80
2023/03/23 07:59:57;;;;;;;4.50;1.65;;;16.30;72.50;;;;;;5047071;28;20067;-81
2023/03/23 08:02:23;;;;;;;2.05;1.60;;;16.40;67.70;;;;;;5046191;28;20028;-81
2023/03/23 08:04:50;;;;;;;3.28;1.58;;;;;;;;;;5040665;28;20072;-82
2023/03/23 08:07:17;;;;;;;2.15;1.17;;;16.40;61.70;;;;;;5047043;28;20359;-80
2023/03/23 08:09:43;;;;;;;3.15;1.85;;;16.60;54.20;;;;;;5039441;28;20030;-79
2023/03/23 08:12:09;;;;;;;5.57;1.30;;;16.40;71.80;;;;;;5046084;28;20028;-80
2023/03/23 08:14:35;;;;;;;2.00;1.33;;;;;;;;;;5046627;28;20108;-86
2023/03/23 08:17:01;;;;;;;6.25;1.35;;;;;;;;;;5046698;28;20128;-82
2023/03/23 08:19:27;;;;;;;4.43;1.77;;;17.10;71.00;;;;;;5049659;28;20044;-80
2023/03/23 08:21:53;;;;;;;2.72;1.20;;;;;;;;;;5047166;28;20036;-83
2023/03/23 08:24:19;;;;;;;2.67;1.17;;;;;;;;;;5047097;28;20108;-79
2023/03/23 08:26:45;;;;;;;2.30;1.17;;;;;;;;;;5047032;28;20788;-77
2023/03/23 08:29:12;;;;;;;4.13;1.88;;;;;;;;;;5047423;28;20040;-77
2023/03/23 08:31:38;;;;;;;2.00;1.27;;;17.30;50.20;;;;;;5051149;28;20078;-78
2023/03/23 08:34:05;;;;;;;2.45;1.60;;;;;;;;;;5050298;28;20074;-78
2023/03/23 08:36:32;;;;;;;5.15;1.65;;;17.40;49.90;;;;;;5050624;28;20639;-83
2023/03/23 08:38:59;;;;;;;1.45;1.33;;;;;;;;;;5050307;28;20400;-76
2023/03/23 08:41:25;;;;;;;1.48;1.10;;;;;;;;;;5048901;28;20499;-78
2023/03/23 08:43:52;;;;;;;1.88;0.95;;;;;;;;;;5050855;28;20095;-80
2023/03/23 08:46:19;;;;;;;2.17;1.17;;;18.10;67.50;;;;;;5050067;28;20024;-79
2023/03/23 08:48:45;;;;;;;4.32;1.65;;;;;;;;;;5050209;28;20033;-80
2023/03/23 08:51:12;;;;;;;3.35;2.30;;;;;;;;;;5050553;28;20101;-80
2023/03/23 08:53:38;;;;;;;6.28;1.75;;;;;;;;;;5050039;28;20487;-79
2023/03/23 08:56:09;;;;;;;7.03;1.38;;;18.60;66.90;;;;;;5048869;28;20033;-82
2023/03/23 08:58:35;;;;;;;2.42;1.58;;;;;;;;;;5050381;28;20502;-83
2023/03/23 09:01:02;;;;;;;2.03;1.48;;;;;;;;;;5050929;28;20235;-80
2023/03/23 09:03:28;;;;;;;1.42;1.27;;;;;;;;;;5050066;28;20037;-79
2023/03/23 09:05:54;;;;;;;2.58;1.60;;;;;;;;;;5051536;28;20025;-81
2023/03/23 09:08:20;;;;;;;3.03;1.50;;;;;;;;;;5050827;28;20110;-80
2023/03/23 09:10:46;;;;;;;4.13;2.28;;;;;;;;;;5050303;28;20028;-78
2023/03/23 09:13:13;;;;;;;2.03;1.25;;;;;;;;;;5049631;28;20140;-78
2023/03/23 09:15:39;;;;;;;2.40;1.43;;;;;;;;;;5050341;28;20033;-79
2023/03/23 09:18:05;;;;;;;1.73;1.42;;;;;;;;;;5050295;28;20021;-79
2023/03/23 09:20:32;;;;;;;1.83;1.17;;;;;;;;;;5050087;28;20052;-80
2023/03/23 09:22:58;;;;;;;3.95;1.40;;;21.30;48.50;;;;;;5050041;28;20399;-80
2023/03/23 09:25:26;;;;;;;4.45;1.33;;;21.40;57.10;;;;;;5049817;28;20029;-79
2023/03/23 09:27:56;;;;;;;1.63;1.50;;;20.90;60.30;;;;;;5050312;28;20083;-82
2023/03/23 09:30:26;;;;;;;4.18;1.27;;;20.80;43.00;;;;;;5049513;28;20049;-80
2023/03/23 09:32:53;;;;;;;3.00;1.42;;;;;;;;;;5049647;28;20029;-80
2023/03/23 09:35:21;;;;;;;1.63;1.33;;;;;;;;;;5048466;28;20518;-80
2023/03/23 09:37:47;;;;;;;1.35;1.20;;;;;;;;;;5049880;28;20036;-77
2023/03/23 09:40:40;;;;;;;2.10;1.15;;;20.70;44.10;;;;;;5047018;28;20566;-83
2023/03/23 09:43:44;;;;;;;1.50;1.30;;;22.50;41.10;;;;;;5047922;28;20102;-85
2023/03/23 09:46:32;;;;;;;1.00;0.95;;;22.80;40.30;;;;;;5026725;28;20463;-82
2023/03/23 09:49:07;;;;;;;3.50;1.88;;;22.40;44.40;;;;;;5026505;28;20033;-82
2023/03/23 09:51:46;;;;;;;2.30;1.40;;;22.00;40.70;;;;;;5025943;28;20045;-82
2023/03/23 09:54:28;;;;;;;6.25;1.92;;;21.40;58.30;;;;;;5026583;28;20117;-75
2023/03/23 09:56:56;;;;;;;6.55;2.05;;;21.40;42.60;;;;;;5042379;28;20159;-75
2023/03/23 09:59:45;;;;;;;3.65;1.75;;;21.00;53.00;;;;;;5026795;28;20147;-79
2023/03/23 10:02:15;;;;;;;4.00;1.65;;;19.90;47.80;;;;;;5026223;28;20088;-81
2023/03/23 10:04:43;;;;;;;2.40;1.65;;;19.80;43.60;;;;;;5026648;28;20029;-81
2023/03/23 10:07:21;;;;;;;7.45;3.78;;;19.60;44.10;;;;;;5026567;28;20508;-81
2023/03/23 10:09:50;;;;;;;6.20;2.85;;;19.60;45.30;;;;;;5025212;28;20038;-82
2023/03/23 10:12:16;;;;;;;1.90;1.80;;;;;;;;;;5023582;28;20030;-81
2023/03/23 10:14:42;;;;;;;3.38;1.65;;;;;;;;;;5010109;28;20076;-81
2023/03/23 10:17:19;;;;;;;1.88;1.55;;;19.30;65.20;;;;;;5026286;28;20037;-79
2023/03/23 10:20:07;;;;;;;2.33;1.65;;;18.70;47.60;;;;;;5026488;28;20040;-81
2023/03/23 10:22:39;;;;;;;2.35;1.90;;;18.60;66.80;;;;;;5029112;28;20037;-80
2023/03/23 10:25:14;;;;;;;3.72;1.48;;;18.50;48.70;;;;;;5048200;28;20024;-71
2023/03/23 10:27:45;;;;;;;3.17;1.17;;;18.70;48.80;;;;;;5048865;28;20086;-77
2023/03/23 10:30:22;;;;;;;1.50;1.40;;;19.00;67.10;;;;;;5048409;28;20565;-76
2023/03/23 10:33:00;;;;;;;2.30;1.38;;;19.20;48.80;;;;;;5048532;28;20021;-76
2023/03/23 10:35:48;;;;;;;2.90;1.25;;;19.40;59.90;;;;;;5039679;28;20624;-85
2023/03/23 10:38:21;;;;;;;4.45;1.73;;;19.70;49.20;;;;;;5049126;28;20043;-82
2023/03/23 10:40:53;;;;;;;9.05;2.22;;;19.40;50.80;;;;;;5048608;28;20119;-79
2023/03/23 10:43:20;;;;;;;2.65;1.52;;;;;;;;;;5045054;28;20029;-80
2023/03/23 10:45:51;;;;;;;4.25;1.30;;;19.50;51.70;;;;;;5047557;28;20601;-78
2023/03/23 10:48:32;;;;;;;3.88;1.65;;;20.00;56.60;;;;;;5048451;28;20029;-79
2023/03/23 10:51:01;;;;;;;3.50;1.20;;;19.80;55.80;;;;;;5048166;28;20120;-79
2023/03/23 10:53:30;;;;;;;1.30;1.20;;;19.80;68.90;;;;;;5047876;28;20115;-80
2023/03/23 10:55:56;;;;;;;2.53;1.50;;;19.90;69.80;;;;;;5048493;28;20438;-79
2023/03/23 10:58:29;;;;;;;4.65;1.48;;;19.40;70.50;;;;;;5048237;28;20032;-79
2023/03/23 11:00:55;;;;;;;3.92;1.88;;;;;;;;;;5048188;28;20098;-80
2023/03/23 11:03:25;;;;;;;3.08;2.08;;;20.60;53.80;;;;;;5047994;28;20055;-80
2023/03/23 11:05:58;;;;;;;1.70;1.60;;;19.80;68.70;;;;;;5047544;28;20031;-77
2023/03/23 11:08:30;;;;;;;3.47;1.55;;;19.30;53.50;;;;;;5047521;28;20040;-78
2023/03/23 11:11:20;;;;;;;2.03;1.40;;;19.30;53.90;;;;;;5047955;28;20060;-78
2023/03/23 11:13:48;;;;;;;1.73;1.40;;;19.20;53.80;;;;;;5047566;28;20130;-79
2023/03/23 11:16:44;;;;;;;;;;;19.30;54.30;;;;;;5047926;28;20105;-77
2023/03/23 11:19:15;;;;;;;1.73;1.27;;;19.00;53.90;;;;;;5029108;28;19912;-78
2023/03/23 11:21:47;;;;;;;4.57;1.60;;;19.00;52.40;;;;;;5047279;28;20037;-78
2023/03/23 11:24:14;;;;;;;1.38;1.17;;;;;;;;;;5047775;28;20029;-77
2023/03/23 11:26:44;;;;;;;2.63;1.40;;;19.00;51.40;;;;;;5047463;28;20024;-78
2023/03/23 11:29:16;;;;;;;2.42;1.38;;;19.20;52.20;;;;;;5048382;28;20110;-77
2023/03/23 11:31:45;;;;;;;2.05;1.42;;;19.00;51.10;;;;;;5035547;28;20040;-77
2023/03/23 11:34:30;;;;;;;3.15;1.25;;;18.90;51.70;;;;;;5047136;28;20033;-81
2023/03/23 11:37:01;;;;;;;1.63;1.17;;;18.80;51.00;;;;;;5047520;28;20040;-80
2023/03/23 11:39:46;;;;;;;1.85;1.38;;;19.20;58.30;;;;;;5048151;28;20024;-83
2023/03/23 11:42:18;;;;;;;1.30;1.20;;;19.60;49.70;;;;;;5051174;28;20420;-82
2023/03/23 11:44:45;;;;;;;1.80;1.20;;;;;;;;;;5045920;28;20029;-84
2023/03/23 11:47:22;;;;;;;1.65;1.17;;;19.90;66.20;;;;;;5048274;28;20040;-81
2023/03/23 11:50:03;;;;;;;1.00;0.70;;;;;;;;;;5047448;28;20035;-84
2023/03/23 11:52:58;;;;;;;1.95;1.35;;;20.00;48.30;;;;;;5047546;28;20079;-82
2023/03/23 11:55:36;;;;;;;2.35;1.17;;;20.50;47.60;;;;;;5047572;28;20137;-80
2023/03/23 11:58:11;;;;;;;1.90;1.27;;;20.60;46.90;;;;;;5047569;28;20044;-80
2023/03/23 12:00:47;;;;;;;1.30;1.20;;;20.70;64.40;;;;;;5045695;28;20048;-80
2023/03/23 12:03:15;;;;;;;2.22;1.60;;;21.10;63.40;;;;;;5048724;28;20035;-82
2023/03/23 12:06:12;;;;;;;2.08;1.50;;;21.30;45.80;;;;;;5057021;28;20082;-82
2023/03/23 12:09:10;;;;;;;1.27;1.10;;;21.50;62.50;;;;;;5042240;28;20037;-76
2023/03/23 12:11:36;;;;;;;3.17;1.15;;;;;;;;;;5053902;28;20029;-77
2023/03/23 12:14:40;;;;;;;1.85;1.75;;;21.90;44.90;;;;;;5048948;28;20203;-77
2023/03/23 12:17:24;;;;;;;2.05;1.20;;;21.80;44.50;;;;;;5039902;28;20132;-79
2023/03/23 12:19:58;;;;;;;3.40;1.23;;;21.50;44.80;;;;;;5050891;28;20605;-77
2023/03/23 12:22:48;;;;;;;1.45;1.23;;;21.50;45.10;;;;;;5050645;28;20027;-77
2023/03/23 12:25:43;;;;;;;2.30;1.38;;;21.60;45.00;;;;;;5051168;28;20072;-77
2023/03/23 12:28:36;;;;;;;2.72;2.08;;;23.60;46.70;;;;;;5050561;28;20043;-77
2023/03/23 12:31:28;;;;;;;1.70;1.50;;;25.60;40.40;;;;;;5050624;28;20032;-82
2023/03/23 12:34:27;;;;;;;1.92;1.45;;;26.20;38.30;;;;;;5030624;28;20037;-79
2023/03/23 12:37:19;;;;;;;1.30;0.95;;;26.50;45.00;;;;;;5050154;28;20124;-79
2023/03/23 12:40:08;;;;;;;1.20;1.10;;;26.80;49.30;;;;;;5047195;28;20062;-79
2023/03/23 12:42:58;;;;;;;1.63;1.52;;;27.60;51.80;;;;;;5033413;28;20056;-79
2023/03/23 12:45:24;;;;;;;2.83;1.50;;;;;;;;;;5049663;28;20025;-79
2023/03/23 12:48:03;;;;;;;4.78;1.65;;;28.80;35.30;;;;;;5050569;28;20041;-78
2023/03/23 12:50:40;;;;;;;1.52;1.10;;;28.50;47.10;;;;;;5050261;28;20025;-78
2023/03/23 12:53:23;;;;;;;4.47;1.40;;;27.50;35.10;;;;;;5051848;28;20051;-79
2023/03/23 12:56:16;;;;;;;2.78;1.30;;;26.80;40.20;;;;;;5053411;28;20028;-79
2023/03/23 12:58:50;;;;;;;1.45;1.08;;;26.00;36.40;;;;;;5053205;28;20033;-79
2023/03/23 13:01:25;;;;;;;2.85;1.38;;;25.60;37.00;;;;;;5053066;28;20059;-78
2023/03/23 13:03:53;;;;;;;2.58;1.85;;;;;;;;;;5053015;28;20407;-79
2023/03/23 13:06:19;;;;;;;;;;;26.60;36.60;;;;;;5053998;28;20055;-79
2023/03/23 13:09:06;;;;;;;2.05;1.60;;;27.10;35.50;;;;;;5053021;28;19948;-79
2023/03/23 13:11:37;;;;;;;3.15;1.65;;;27.40;36.00;;;;;;5053389;28;20044;-79
2023/03/23 13:14:03;;;;;;;1.73;1.20;;;;;;;;;;5053443;28;20025;-79
2023/03/23 13:16:43;;;;;;;3.95;1.45;;;27.20;48.30;;;;;;5049836;28;20033;-79
2023/03/23 13:19:45;;;;;;;2.95;1.63;;;26.90;45.60;;;;;;5063964;28;20021;-79
2023/03/23 13:22:19;;;;;;;4.07;1.55;;;26.40;36.20;;;;;;5037435;28;20130;-82
2023/03/23 13:24:54;;;;;;;2.83;1.40;;;26.00;36.60;;;;;;5049515;28;20025;-78
2023/03/23 13:27:27;;;;;;;3.25;1.60;;;25.60;36.70;;;;;;5050586;28;20130;-78
2023/03/23 13:29:53;;;;;;;6.18;2.97;;;25.20;53.10;;;;;;5049193;28;20028;-79
2023/03/23 13:32:20;;;;;;;2.03;1.73;;;24.90;38.00;;;;;;5049997;28;20100;-78
2023/03/23 13:34:48;;;;;;;3.20;2.00;;;24.50;38.50;;;;;;5049430;28;20032;-78
2023/03/23 13:37:24;;;;;;;1.85;1.30;;;24.10;38.50;;;;;;5049369;28;20045;-84
2023/03/23 13:39:56;;;;;;;3.83;2.28;;;23.80;38.60;;;;;;5048653;28;20078;-78
2023/03/23 13:42:26;;;;;;;3.58;1.73;;;23.70;39.00;;;;;;5049008;28;20518;-78
2023/03/23 13:44:52;;;;;;;6.03;1.98;;;;;;;;;;5047718;28;20027;-77
2023/03/23 13:47:27;;;;;;;3.92;2.40;;;23.40;39.50;;;;;;5049712;28;20028;-78
2023/03/23 13:50:22;;;;;;;2.58;1.60;;;23.40;40.00;;;;;;5048018;28;20025;-77